Time;durP1;ratioP1;P1;durP2;ratioP2;P2;SDS_P1;SDS_P2;PMS_P1;PMS_P2;Temp;Humidity;BMP_temperature;BMP_pressure;BME280_temperature;BME280_humidity;BME280_pressure;Samples;Min_cycle;Max_cycle;Signal;HPM_P1;HPM_P2
2022/11/01 00:00:11;;;;;;;;;;;;;;;8.88;82.93;100757.91;5028638;28;1777;-77
2022/11/01 00:02:37;;;;;;;;;;;;;;;8.88;82.94;100757.91;5025302;28;2060;-77
2022/11/01 00:05:04;;;;;;;;;;;;;;;8.87;82.82;100751.72;5022523;28;1951;-77
2022/11/01 00:07:30;;;;;;;;;;;;;;;8.87;82.76;100758.94;5031139;28;2022;-77
2022/11/01 00:09:56;;;;;;;;;;;;;;;8.89;82.89;100764.13;5023592;28;1911;-77
2022/11/01 00:12:23;;;;;;;;;;;;;;;8.88;82.86;100760.59;5026450;28;1971;-77
2022/11/01 00:14:49;;;;;;;;;;;;;;;8.89;82.76;100758.75;5023995;28;1970;-77
2022/11/01 00:17:15;;;;;;;;;;;;;;;8.89;82.61;100761.44;5025827;28;1904;-77
2022/11/01 00:19:41;;;;;;;;;;;;;;;8.88;82.72;100755.22;5021967;28;2008;-77
2022/11/01 00:22:08;;;;;;;;;;;;;;;8.88;82.62;100755.22;5024700;28;1776;-77
2022/11/01 00:24:34;;;;;;;;;;;;;;;8.88;82.52;100749.84;5026063;28;1591;-77
2022/11/01 00:27:00;;;;;;;;;;;;;;;8.89;82.45;100748.00;5024477;28;1910;-77
2022/11/01 00:29:27;;;;;;;;;;;;;;;8.89;82.79;100751.53;5021206;28;2159;-76
2022/11/01 00:31:53;;;;;;;;;;;;;;;8.88;82.55;100747.16;5020786;28;3551;-77
2022/11/01 00:34:19;;;;;;;;;;;;;;;8.88;82.40;100744.47;5023373;28;3584;-77
2022/11/01 00:36:46;;;;;;;;;;;;;;;8.89;82.93;100742.63;5024593;28;2445;-77
2022/11/01 00:39:12;;;;;;;;;;;;;;;8.87;82.77;100743.66;5023031;28;1959;-77
2022/11/01 00:41:38;;;;;;;;;;;;;;;8.88;82.70;100741.78;5022772;28;2058;-77
2022/11/01 00:44:05;;;;;;;;;;;;;;;8.89;82.60;100734.59;5024773;28;2039;-77
2022/11/01 00:46:31;;;;;;;;;;;;;;;8.89;82.42;100745.34;5022089;28;1936;-77
2022/11/01 00:48:57;;;;;;;;;;;;;;;8.87;82.67;100732.91;5022115;28;2563;-77
2022/11/01 00:51:23;;;;;;;;;;;;;;;8.89;82.86;100734.59;5024515;28;1959;-77
2022/11/01 00:53:50;;;;;;;;;;;;;;;8.88;82.33;100731.03;5024881;28;1975;-77
2022/11/01 00:56:16;;;;;;;;;;;;;;;8.87;82.69;100727.53;5022387;28;1817;-77
2022/11/01 00:58:42;;;;;;;;;;;;;;;8.88;82.77;100728.34;5024280;28;1892;-77
2022/11/01 01:01:08;;;;;;;;;;;;;;;8.88;82.45;100728.34;5028588;28;1960;-77
2022/11/01 01:03:35;;;;;;;;;;;;;;;8.88;82.58;100723.00;5025657;28;1619;-77
2022/11/01 01:06:01;;;;;;;;;;;;;;;8.89;82.50;100715.78;5019544;28;2014;-77
2022/11/01 01:08:28;;;;;;;;;;;;;;;8.88;82.56;100720.31;5025429;28;1761;-77
2022/11/01 01:10:54;;;;;;;;;;;;;;;8.87;82.74;100702.53;5021459;28;1862;-77
2022/11/01 01:13:20;;;;;;;;;;;;;;;8.87;82.69;100711.41;5043388;28;1761;-77
2022/11/01 01:15:46;;;;;;;;;;;;;;;8.87;82.37;100703.38;5025071;28;1804;-77
2022/11/01 01:18:13;;;;;;;;;;;;;;;8.87;82.72;100708.75;5023436;28;1777;-77
2022/11/01 01:20:39;;;;;;;;;;;;;;;8.88;82.44;100712.25;5023284;28;1950;-77
2022/11/01 01:23:05;;;;;;;;;;;;;;;8.88;82.58;100706.88;5025989;28;1690;-77
2022/11/01 01:25:32;;;;;;;;;;;;;;;8.88;82.35;100698.81;5030215;28;1725;-77
2022/11/01 01:27:58;;;;;;;;;;;;;;;8.88;82.36;100706.88;5020746;28;1991;-77
2022/11/01 01:30:24;;;;;;;;;;;;;;;8.87;82.66;100708.75;5023012;28;1804;-77
2022/11/01 01:32:50;;;;;;;;;;;;;;;8.87;82.41;100706.06;5019923;28;1829;-77
2022/11/01 01:35:17;;;;;;;;;;;;;;;8.88;82.49;100709.56;5022457;28;1709;-76
2022/11/01 01:37:43;;;;;;;;;;;;;;;8.88;82.62;100712.25;5023894;28;1757;-77
2022/11/01 01:40:09;;;;;;;;;;;;;;;8.89;82.33;100705.03;5023568;28;1790;-77
2022/11/01 01:42:35;;;;;;;;;;;;;;;8.87;82.65;100703.38;5021931;28;2126;-77
2022/11/01 01:45:01;;;;;;;;;;;;;;;8.87;82.49;100706.06;5024887;28;1974;-77
2022/11/01 01:47:27;;;;;;;;;;;;;;;8.87;82.52;100700.69;5021508;28;2262;-77
2022/11/01 01:49:53;;;;;;;;;;;;;;;8.88;82.63;100698.81;5020849;28;1970;-77
2022/11/01 01:52:20;;;;;;;;;;;;;;;8.88;82.36;100701.50;5019021;28;3401;-77
2022/11/01 01:54:46;;;;;;;;;;;;;;;8.87;82.34;100694.47;5025374;28;1895;-77
2022/11/01 01:57:12;;;;;;;;;;;;;;;8.88;82.52;100698.81;5014760;28;5456;-77
2022/11/01 01:59:39;;;;;;;;;;;;;;;8.90;82.48;100704.00;5029100;28;5204;-77
2022/11/01 02:02:05;;;;;;;;;;;;;;;8.88;82.70;100698.81;5023584;28;4566;-77
2022/11/01 02:04:31;;;;;;;;;;;;;;;8.87;82.58;100703.38;5026797;28;2191;-77
2022/11/01 02:06:57;;;;;;;;;;;;;;;8.88;82.33;100698.81;5020201;28;1971;-77
2022/11/01 02:09:24;;;;;;;;;;;;;;;8.87;82.30;100694.47;5025590;28;2069;-77
2022/11/01 02:11:50;;;;;;;;;;;;;;;8.87;82.72;100695.31;5024114;28;1726;-77
2022/11/01 02:14:20;;;;;;;;;;;;;;;8.88;82.60;100701.50;5022683;28;5454;-77
2022/11/01 02:16:46;;;;;;;;;;;;;;;8.88;82.17;100698.81;5022178;28;1930;-77
2022/11/01 02:19:12;;;;;;;;;;;;;;;8.88;82.43;100696.13;5023152;28;1646;-77
2022/11/01 02:21:39;;;;;;;;;;;;;;;8.87;82.33;100689.13;5018699;28;1667;-77
2022/11/01 02:24:05;;;;;;;;;;;;;;;8.87;82.57;100694.47;5021806;28;1982;-77
2022/11/01 02:26:31;;;;;;;;;;;;;;;8.87;82.53;100691.81;5020893;28;2895;-76
2022/11/01 02:28:58;;;;;;;;;;;;;;;8.87;82.59;100681.06;5021111;28;2058;-77
2022/11/01 02:31:24;;;;;;;;;;;;;;;8.88;82.61;100682.69;5019612;28;2038;-77
2022/11/01 02:33:50;;;;;;;;;;;;;;;8.87;82.50;100681.06;5019808;28;1813;-77
2022/11/01 02:36:16;;;;;;;;;;;;;;;8.88;82.31;100682.69;5022916;28;1871;-77
2022/11/01 02:38:43;;;;;;;;;;;;;;;8.87;82.60;100675.69;5026022;28;1964;-77
2022/11/01 02:41:09;;;;;;;;;;;;;;;8.87;82.36;100671.13;5024513;28;1984;-77
2022/11/01 02:43:35;;;;;;;;;;;;;;;8.89;82.59;100675.50;5018966;28;1841;-77
2022/11/01 02:46:59;;;;;;;;;;;;;;;8.87;82.30;100670.31;5023431;28;1898;-77
2022/11/01 02:48:48;;;;;;;;;;;;;;;8.87;82.35;100671.13;5019624;28;1926;-77
2022/11/01 02:51:15;;;;;;;;;;;;;;;8.87;82.51;100673.81;5023017;28;1963;-77
2022/11/01 02:53:41;;;;;;;;;;;;;;;8.87;82.46;100665.75;5023918;28;1922;-77
2022/11/01 02:56:07;;;;;;;;;;;;;;;8.87;82.55;100664.94;5023217;28;2111;-77
2022/11/01 02:58:33;;;;;;;;;;;;;;;8.87;82.56;100670.31;5023289;28;2670;-77
2022/11/01 03:01:00;;;;;;;;;;;;;;;8.87;82.24;100673.00;5025973;28;1872;-77
2022/11/01 03:03:26;;;;;;;;;;;;;;;8.86;82.32;100668.66;5014705;28;1848;-77
2022/11/01 03:05:52;;;;;;;;;;;;;;;8.86;82.60;100672.19;5005310;28;1918;-77
2022/11/01 03:08:18;;;;;;;;;;;;;;;8.86;82.63;100663.28;5004183;28;1979;-77
2022/11/01 03:10:45;;;;;;;;;;;;;;;8.86;82.21;100657.94;5013302;28;1526;-77
2022/11/01 03:13:11;;;;;;;;;;;;;;;8.85;82.25;100658.94;5014746;28;1674;-77
2022/11/01 03:15:38;;;;;;;;;;;;;;;8.86;82.22;100657.94;5007835;28;1536;-77
2022/11/01 03:18:05;;;;;;;;;;;;;;;8.86;82.32;100655.25;5004888;28;1858;-77
2022/11/01 03:20:46;;;;;;;;;;;;;;;8.84;82.23;100652.75;5006029;28;1626;-77
2022/11/01 03:23:12;;;;;;;;;;;;;;;8.86;82.07;100653.38;5011839;28;1619;-77
2022/11/01 03:25:39;;;;;;;;;;;;;;;8.85;82.39;100657.09;5012679;28;1917;-76
2022/11/01 03:28:05;;;;;;;;;;;;;;;8.86;82.22;100658.75;5014133;28;2032;-77
2022/11/01 03:30:32;;;;;;;;;;;;;;;8.86;82.10;100663.28;5010598;28;1727;-76
2022/11/01 03:32:58;;;;;;;;;;;;;;;8.85;82.47;100654.41;5008902;28;1625;-77
2022/11/01 03:35:24;;;;;;;;;;;;;;;8.86;82.00;100655.25;5008132;28;1570;-77
2022/11/01 03:37:51;;;;;;;;;;;;;;;8.85;82.12;100657.09;5008880;28;1866;-77
2022/11/01 03:40:17;;;;;;;;;;;;;;;8.86;82.09;100657.94;5008955;28;1654;-77
2022/11/01 03:42:43;;;;;;;;;;;;;;;8.86;81.95;100647.19;5009592;28;2553;-77
2022/11/01 03:45:09;;;;;;;;;;;;;;;8.86;82.12;100657.94;5006605;28;1518;-77
2022/11/01 03:47:36;;;;;;;;;;;;;;;8.85;82.02;100643.69;5013540;28;1989;-77
2022/11/01 03:50:02;;;;;;;;;;;;;;;8.84;82.19;100644.69;5010186;28;1533;-77
2022/11/01 03:52:28;;;;;;;;;;;;;;;8.85;82.22;100645.50;5016761;28;1832;-76
2022/11/01 03:54:55;;;;;;;;;;;;;;;8.86;82.21;100647.19;5006129;28;1586;-77
2022/11/01 03:57:21;;;;;;;;;;;;;;;8.85;82.27;100648.19;5007364;28;1682;-77
2022/11/01 03:59:47;;;;;;;;;;;;;;;8.85;82.27;100651.72;5011069;28;1699;-77
2022/11/01 04:02:14;;;;;;;;;;;;;;;8.86;82.00;100652.56;5009541;28;1867;-77
2022/11/01 04:04:40;;;;;;;;;;;;;;;8.85;82.01;100649.03;5010568;28;1655;-77
2022/11/01 04:07:06;;;;;;;;;;;;;;;8.85;82.15;100657.09;5009690;28;1977;-77
2022/11/01 04:09:33;;;;;;;;;;;;;;;8.85;81.94;100649.03;5010601;28;1763;-77
2022/11/01 04:11:59;;;;;;;;;;;;;;;8.85;82.24;100643.69;5011854;28;1920;-77
2022/11/01 04:22:38;;;;;;;;;;;;;;;8.85;82.08;100643.69;5014830;28;4301;-77
2022/11/01 04:25:04;;;;;;;;;;;;;;;8.84;82.32;100633.94;5007073;28;1908;-77
2022/11/01 04:27:30;;;;;;;;;;;;;;;8.84;82.31;100633.13;4998097;28;6064;-77
2022/11/01 04:29:56;;;;;;;;;;;;;;;8.84;81.78;100631.25;5008760;28;5166;-77
2022/11/01 04:32:23;;;;;;;;;;;;;;;8.85;82.04;100634.75;5013989;28;4538;-77
2022/11/01 04:34:49;;;;;;;;;;;;;;;8.83;82.13;100626.94;5017719;28;1896;-77
2022/11/01 04:37:15;;;;;;;;;;;;;;;8.49;82.35;100576.91;5013705;28;1609;-76
2022/11/01 04:39:42;;;;;;;;;;;;;;;8.84;82.26;100633.94;5007468;28;1726;-77
2022/11/01 04:42:08;;;;;;;;;;;;;;;8.84;82.00;100625.88;5008243;28;1581;-77
2022/11/01 04:44:34;;;;;;;;;;;;;;;8.84;82.10;100620.50;5008053;28;5373;-77
2022/11/01 04:47:01;;;;;;;;;;;;;;;8.84;82.19;100617.81;5016244;28;1969;-77
2022/11/01 04:49:27;;;;;;;;;;;;;;;8.84;82.00;100630.44;5009227;28;1701;-77
2022/11/01 04:51:54;;;;;;;;;;;;;;;8.84;82.00;100620.50;5019503;28;2212;-77
2022/11/01 04:54:20;;;;;;;;;;;;;;;8.83;81.86;100621.56;5004421;28;1846;-77
2022/11/01 04:56:46;;;;;;;;;;;;;;;8.84;82.26;100617.00;5005478;28;2882;-77
2022/11/01 04:59:12;;;;;;;;;;;;;;;8.83;82.21;100610.81;5007946;28;1825;-77
2022/11/01 05:01:39;;;;;;;;;;;;;;;8.83;81.91;100615.38;5010420;28;1553;-76
2022/11/01 05:04:05;;;;;;;;;;;;;;;8.84;82.25;100603.56;5008867;28;1811;-77
2022/11/01 05:06:31;;;;;;;;;;;;;;;8.83;81.75;100600.06;5004982;28;1670;-76
2022/11/01 05:08:58;;;;;;;;;;;;;;;8.83;81.86;100599.25;5016241;28;1942;-77
2022/11/01 05:11:24;;;;;;;;;;;;;;;8.83;82.09;100594.69;5020398;28;1691;-77
2022/11/01 05:13:50;;;;;;;;;;;;;;;8.84;81.87;100599.03;5022687;28;1809;-77
2022/11/01 05:16:17;;;;;;;;;;;;;;;8.83;81.87;100594.69;5026776;28;1899;-77
2022/11/01 05:18:43;;;;;;;;;;;;;;;8.83;81.84;100586.66;5021297;28;2050;-77
2022/11/01 05:21:10;;;;;;;;;;;;;;;8.83;81.77;100581.28;5022030;28;1905;-76
2022/11/01 05:23:36;;;;;;;;;;;;;;;8.83;81.83;100578.59;5022203;28;1923;-77
2022/11/01 05:26:02;;;;;;;;;;;;;;;8.84;82.07;100584.78;5025197;28;1658;-77
2022/11/01 05:28:31;;;;;;;;;;;;;;;8.84;81.98;100584.78;5005914;28;1914;-76
2022/11/01 05:30:57;;;;;;;;;;;;;;;8.83;81.70;100589.34;5006936;28;1626;-77
2022/11/01 05:33:23;;;;;;;;;;;;;;;8.83;81.72;100589.34;5004623;28;1699;-77
2022/11/01 05:35:49;;;;;;;;;;;;;;;8.83;82.00;100580.44;5004630;28;1844;-76
2022/11/01 05:38:16;;;;;;;;;;;;;;;8.82;81.98;100579.63;5006551;28;1724;-77
2022/11/01 05:40:42;;;;;;;;;;;;;;;8.83;81.93;100581.28;5006450;28;1670;-76
2022/11/01 05:43:08;;;;;;;;;;;;;;;8.83;81.65;100572.41;5005167;28;1707;-77
2022/11/01 05:45:35;;;;;;;;;;;;;;;8.82;81.89;100568.88;5003434;28;1886;-77
2022/11/01 05:48:01;;;;;;;;;;;;;;;8.84;81.86;100566.78;5011188;28;2028;-77
2022/11/01 05:50:27;;;;;;;;;;;;;;;8.84;81.84;100568.66;5005416;28;1663;-77
2022/11/01 05:52:53;;;;;;;;;;;;;;;8.84;81.67;100568.66;5003686;28;1862;-77
2022/11/01 05:55:20;;;;;;;;;;;;;;;8.83;81.72;100562.47;5003091;28;1533;-77
2022/11/01 05:57:46;;;;;;;;;;;;;;;8.84;82.03;100549.88;5003875;28;1823;-77
2022/11/01 06:00:13;;;;;;;;;;;;;;;8.84;81.92;100558.75;5019659;28;1547;-77
2022/11/01 06:02:39;;;;;;;;;;;;;;;8.84;81.83;100550.69;5009678;28;1651;-77
2022/11/01 06:05:05;;;;;;;;;;;;;;;8.84;81.65;100549.88;4997193;28;5468;-77
2022/11/01 06:07:32;;;;;;;;;;;;;;;8.83;81.76;100543.66;5002790;28;2500;-77
2022/11/01 06:09:58;;;;;;;;;;;;;;;8.83;81.72;100541.00;5009886;28;1663;-76
2022/11/01 06:12:24;;;;;;;;;;;;;;;8.84;81.79;100548.00;5013200;28;1939;-77
2022/11/01 06:14:51;;;;;;;;;;;;;;;8.85;81.75;100548.81;5012828;28;3448;-76
2022/11/01 06:17:17;;;;;;;;;;;;;;;8.84;81.79;100539.94;5013080;28;3089;-76
2022/11/01 06:19:44;;;;;;;;;;;;;;;8.84;81.78;100539.94;5020287;28;1557;-77
2022/11/01 06:22:10;;;;;;;;;;;;;;;8.84;81.55;100531.88;5012019;28;1772;-77
2022/11/01 06:24:36;;;;;;;;;;;;;;;8.84;81.69;100539.94;5012032;28;1969;-77
2022/11/01 06:27:02;;;;;;;;;;;;;;;8.85;81.58;100540.75;5016590;28;1439;-77
2022/11/01 06:29:29;;;;;;;;;;;;;;;8.85;81.39;100533.56;5012728;28;1914;-77
2022/11/01 06:31:55;;;;;;;;;;;;;;;8.85;81.74;100538.06;5009081;28;1808;-76
2022/11/01 06:34:21;;;;;;;;;;;;;;;8.85;81.46;100532.72;5004197;28;1861;-77
2022/11/01 06:36:48;;;;;;;;;;;;;;;8.86;81.40;100529.00;5005999;28;1620;-76
2022/11/01 06:39:16;;;;;;;;;;;;;;;8.89;81.38;100527.75;5004011;28;1596;-77
2022/11/01 06:41:42;;;;;;;;;;;;;;;8.85;81.30;100519.28;5007603;28;1869;-77
2022/11/01 06:44:09;;;;;;;;;;;;;;;8.85;81.74;100514.75;5009508;28;1604;-76
2022/11/01 06:46:35;;;;;;;;;;;;;;;8.85;81.77;100505.84;5013102;28;1538;-77
2022/11/01 06:49:01;;;;;;;;;;;;;;;8.85;81.70;100493.28;5016272;28;1981;-77
2022/11/01 06:51:28;;;;;;;;;;;;;;;8.85;81.49;100497.78;5011315;28;3349;-77
2022/11/01 06:53:54;;;;;;;;;;;;;;;8.84;81.73;100498.84;5011391;28;3342;-77
2022/11/01 06:56:20;;;;;;;;;;;;;;;8.85;81.39;100492.41;5018126;28;2852;-77
2022/11/01 06:58:47;;;;;;;;;;;;;;;8.86;81.89;100492.22;5013894;28;1666;-77
2022/11/01 07:01:13;;;;;;;;;;;;;;;8.87;81.64;100498.41;5017936;28;1955;-77
2022/11/01 07:03:39;;;;;;;;;;;;;;;8.87;81.39;100501.09;5018643;28;1726;-77
2022/11/01 07:06:05;;;;;;;;;;;;;;;8.87;81.70;100503.78;5025919;28;1888;-77
2022/11/01 07:08:32;;;;;;;;;;;;;;;8.88;81.35;100508.13;5025060;28;2498;-77
2022/11/01 07:10:59;;;;;;;;;;;;;;;8.88;81.54;100505.44;5025709;28;1694;-77
2022/11/01 07:13:25;;;;;;;;;;;;;;;8.88;81.35;100500.06;5016498;28;2059;-77
2022/11/01 07:15:52;;;;;;;;;;;;;;;8.87;81.18;100501.91;5012227;28;1618;-77
2022/11/01 07:18:18;;;;;;;;;;;;;;;8.89;81.28;100517.03;5016523;28;1630;-77
2022/11/01 07:20:44;;;;;;;;;;;;;;;8.89;81.37;100508.97;5008114;28;2418;-77
2022/11/01 07:23:11;;;;;;;;;;;;;;;8.87;81.31;100499.25;5007833;28;2603;-77
2022/11/01 07:25:37;;;;;;;;;;;;;;;8.88;81.38;100508.13;5010146;28;1530;-76
2022/11/01 07:28:03;;;;;;;;;;;;;;;8.87;81.51;100509.97;5007976;28;1981;-77
2022/11/01 07:30:30;;;;;;;;;;;;;;;8.88;81.28;100505.44;5011822;28;1718;-77
2022/11/01 07:32:56;;;;;;;;;;;;;;;8.87;81.14;100499.25;5011498;28;1703;-77
2022/11/01 07:35:23;;;;;;;;;;;;;;;8.87;81.39;100493.03;5013089;28;1635;-77
2022/11/01 07:37:49;;;;;;;;;;;;;;;8.87;81.48;100496.56;5020935;28;1650;-77
2022/11/01 07:40:15;;;;;;;;;;;;;;;8.87;81.43;100485.00;5020834;28;1647;-76
2022/11/01 07:42:42;;;;;;;;;;;;;;;8.87;81.21;100493.88;5024530;28;1892;-77
2022/11/01 07:45:08;;;;;;;;;;;;;;;8.87;81.52;100488.50;5025897;28;1833;-77
2022/11/01 07:47:35;;;;;;;;;;;;;;;8.88;81.13;100492.00;5030574;28;2108;-77
2022/11/01 07:50:01;;;;;;;;;;;;;;;8.87;81.34;100491.19;5018966;28;1766;-77
2022/11/01 07:52:27;;;;;;;;;;;;;;;8.88;81.37;100492.00;5013604;28;1539;-76
2022/11/01 07:54:54;;;;;;;;;;;;;;;8.87;81.15;100496.56;5020503;28;2030;-77
2022/11/01 07:57:20;;;;;;;;;;;;;;;8.89;81.14;100492.84;5018775;28;2022;-77
2022/11/01 07:59:46;;;;;;;;;;;;;;;8.89;81.23;100498.22;5024434;28;1659;-77
2022/11/01 08:02:12;;;;;;;;;;;;;;;8.88;81.11;100492.00;5028143;28;1760;-77
2022/11/01 08:04:39;;;;;;;;;;;;;;;8.87;81.42;100493.88;5030923;28;2033;-77
2022/11/01 08:07:05;;;;;;;;;;;;;;;8.87;81.33;100498.41;5016018;28;5085;-77
2022/11/01 08:09:31;;;;;;;;;;;;;;;8.86;81.41;100500.28;5024540;28;1977;-77
2022/11/01 08:11:58;;;;;;;;;;;;;;;8.85;81.35;100495.97;5027518;28;4863;-77
2022/11/01 08:14:24;;;;;;;;;;;;;;;8.85;81.47;100500.47;5025673;28;1880;-77
2022/11/01 08:16:54;;;;;;;;;;;;;;;8.83;81.49;100497.19;5024924;28;1805;-77
2022/11/01 08:19:23;;;;;;;;;;;;;;;8.82;81.63;100490.16;5024652;28;1845;-77
2022/11/01 08:21:50;;;;;;;;;;;;;;;8.82;81.61;100493.69;5022064;28;1875;-77
2022/11/01 08:24:16;;;;;;;;;;;;;;;8.81;81.64;100489.34;5025575;28;4981;-77
2022/11/01 08:26:43;;;;;;;;;;;;;;;8.83;81.57;100483.78;5023979;28;1919;-77
2022/11/01 08:29:09;;;;;;;;;;;;;;;8.81;81.61;100472.41;5024434;28;2061;-77
2022/11/01 08:31:35;;;;;;;;;;;;;;;8.81;81.81;100475.09;5024894;28;1986;-77
2022/11/01 08:34:01;;;;;;;;;;;;;;;8.82;81.41;100471.34;5023851;28;1849;-77
2022/11/01 08:36:28;;;;;;;;;;;;;;;8.82;81.78;100471.34;5022664;28;2970;-77
2022/11/01 08:38:54;;;;;;;;;;;;;;;8.81;81.48;100470.53;5023957;28;2015;-77
2022/11/01 08:41:22;;;;;;;;;;;;;;;8.81;81.66;100475.09;5025705;28;1990;-77
2022/11/01 08:43:48;;;;;;;;;;;;;;;8.81;81.69;100467.03;5020394;28;1928;-77
2022/11/01 08:46:15;;;;;;;;;;;;;;;8.80;81.48;100465.41;5023287;28;1782;-77
2022/11/01 08:48:41;;;;;;;;;;;;;;;8.80;81.50;100462.72;5021459;28;1958;-77
2022/11/01 08:51:07;;;;;;;;;;;;;;;8.80;81.50;100457.34;5027253;28;1674;-77
2022/11/01 08:53:33;;;;;;;;;;;;;;;8.81;81.61;100456.28;5024697;28;1920;-77
2022/11/01 08:56:00;;;;;;;;;;;;;;;8.80;81.80;100452.78;5027347;28;1947;-77
2022/11/01 08:58:28;;;;;;;;;;;;;;;8.81;81.42;100450.91;5023760;28;1848;-77
2022/11/01 09:00:55;;;;;;;;;;;;;;;8.80;81.39;100442.03;5024103;28;2050;-77
2022/11/01 09:03:21;;;;;;;;;;;;;;;8.80;81.57;100428.63;5019191;28;1654;-77
2022/11/01 09:05:47;;;;;;;;;;;;;;;8.80;81.77;100428.63;5024864;28;1975;-77
2022/11/01 09:08:13;;;;;;;;;;;;;;;8.82;81.57;100431.06;5022434;28;1910;-77
2022/11/01 09:10:40;;;;;;;;;;;;;;;8.80;81.71;100420.56;5021611;28;1841;-77
2022/11/01 09:13:09;;;;;;;;;;;;;;;8.81;81.68;100421.38;5024917;28;1915;-77
2022/11/01 09:15:35;;;;;;;;;;;;;;;8.80;81.85;100420.56;5021631;28;1855;-77
2022/11/01 09:18:01;;;;;;;;;;;;;;;8.80;81.85;100415.19;5022394;28;1868;-77
2022/11/01 09:20:28;;;;;;;;;;;;;;;8.81;81.89;100413.31;5024604;28;2913;-77
2022/11/01 09:22:54;;;;;;;;;;;;;;;8.81;81.85;100400.72;5029185;28;3450;-77
2022/11/01 09:25:22;;;;;;;;;;;;;;;8.80;81.56;100399.06;5021082;28;1927;-77
2022/11/01 09:27:48;;;;;;;;;;;;;;;8.80;81.91;100399.06;5022898;28;2361;-77
2022/11/01 09:30:15;;;;;;;;;;;;;;;8.81;81.71;100394.53;5022213;28;1932;-77
2022/11/01 09:32:41;;;;;;;;;;;;;;;8.81;81.64;100386.47;5027656;28;2111;-77
2022/11/01 09:35:07;;;;;;;;;;;;;;;8.82;82.02;100386.28;5020778;28;1892;-77
2022/11/01 09:37:34;;;;;;;;;;;;;;;8.81;81.95;100383.78;5023476;28;1640;-77
2022/11/01 09:40:00;;;;;;;;;;;;;;;8.82;81.63;100369.31;5026047;28;2651;-77
2022/11/01 09:42:27;;;;;;;;;;;;;;;8.81;81.75;100356.94;5022313;28;1967;-77
2022/11/01 09:44:53;;;;;;;;;;;;;;;8.81;81.93;100349.69;5021068;28;1994;-77
2022/11/01 09:47:19;;;;;;;;;;;;;;;8.81;81.96;100349.69;5022796;28;1957;-77
2022/11/01 09:49:46;;;;;;;;;;;;;;;8.81;81.88;100332.75;5022010;28;1914;-77
2022/11/01 09:52:12;;;;;;;;;;;;;;;8.82;81.91;100339.75;5024374;28;2066;-77
2022/11/01 09:54:38;;;;;;;;;;;;;;;8.81;81.98;100344.31;5022901;28;2044;-77
2022/11/01 09:57:04;;;;;;;;;;;;;;;8.82;81.92;100337.94;5021426;28;1661;-77
2022/11/01 09:59:31;;;;;;;;;;;;;;;8.82;81.95;100337.94;5020830;28;2005;-77
2022/11/01 10:01:57;;;;;;;;;;;;;;;8.83;81.54;100336.06;5025470;28;1684;-77
2022/11/01 10:04:24;;;;;;;;;;;;;;;8.82;81.93;100343.31;5023938;28;1939;-77
2022/11/01 10:06:50;;;;;;;;;;;;;;;8.83;81.61;100328.00;5022900;28;1881;-77
2022/11/01 10:09:16;;;;;;;;;;;;;;;8.83;81.81;100325.31;5021221;28;1981;-77
2022/11/01 10:11:43;;;;;;;;;;;;;;;8.82;81.81;100319.13;5022490;28;1849;-77
2022/11/01 10:14:09;;;;;;;;;;;;;;;8.83;81.84;100325.31;5023460;28;1876;-77
2022/11/01 10:16:35;;;;;;;;;;;;;;;8.83;81.57;100328.81;5019029;28;1924;-77
2022/11/01 10:19:02;;;;;;;;;;;;;;;8.84;81.72;100330.47;5019742;28;1919;-77
2022/11/01 10:21:28;;;;;;;;;;;;;;;8.84;81.66;100325.09;5027564;28;1916;-77
2022/11/01 10:23:54;;;;;;;;;;;;;;;8.84;81.50;100327.78;5029487;28;1900;-77
2022/11/01 10:26:21;;;;;;;;;;;;;;;8.83;81.72;100320.78;5027740;28;1858;-77
2022/11/01 10:28:47;;;;;;;;;;;;;;;8.84;81.63;100321.59;5024983;28;1977;-77
2022/11/01 10:31:13;;;;;;;;;;;;;;;8.85;81.56;100312.47;5028876;28;1916;-77
2022/11/01 10:33:39;;;;;;;;;;;;;;;8.84;81.69;100311.66;5032899;28;1864;-77
2022/11/01 10:36:06;;;;;;;;;;;;;;;8.85;81.48;100312.47;5024884;28;5329;-77
2022/11/01 10:38:32;;;;;;;;;;;;;;;8.84;81.93;100314.34;5029567;28;5149;-78
2022/11/01 10:40:58;;;;;;;;;;;;;;;8.85;81.87;100307.09;5022989;28;1644;-76
2022/11/01 10:43:25;;;;;;;;;;;;;;;8.85;81.62;100304.44;5021827;28;5043;-77
2022/11/01 10:45:51;;;;;;;;;;;;;;;8.85;81.85;100307.09;5023303;28;1736;-77
2022/11/01 10:48:17;;;;;;;;;;;;;;;8.85;81.55;100291.84;5021537;28;1971;-77
2022/11/01 10:50:44;;;;;;;;;;;;;;;8.85;81.75;100289.16;5023588;28;1924;-76
2022/11/01 10:53:11;;;;;;;;;;;;;;;8.86;81.97;100284.59;5026454;28;2068;-76
2022/11/01 10:55:37;;;;;;;;;;;;;;;8.86;81.89;100290.81;5027467;28;4602;-76
2022/11/01 10:58:03;;;;;;;;;;;;;;;8.86;81.81;100284.59;5021548;28;1789;-77
2022/11/01 11:00:31;;;;;;;;;;;;;;;8.86;81.92;100274.69;5020776;28;1924;-76
2022/11/01 11:02:57;;;;;;;;;;;;;;;8.86;81.57;100271.19;5023319;28;1691;-76
2022/11/01 11:05:24;;;;;;;;;;;;;;;8.86;81.94;100269.31;5029932;28;1565;-77
2022/11/01 11:07:51;;;;;;;;;;;;;;;8.87;81.71;100267.44;5030006;28;2806;-76
2022/11/01 11:10:17;;;;;;;;;;;;;;;8.87;81.74;100262.06;5032524;28;1910;-77
2022/11/01 11:12:44;;;;;;;;;;;;;;;8.86;81.71;100253.19;5031909;28;1807;-76
2022/11/01 11:15:12;;;;;;;;;;;;;;;8.86;81.86;100238.94;5030241;28;1912;-76
2022/11/01 11:17:39;;;;;;;;;;;;;;;8.88;81.78;100242.22;5030151;28;1580;-76
2022/11/01 11:20:06;;;;;;;;;;;;;;;8.88;81.74;100247.59;5031586;28;1503;-76
2022/11/01 11:22:33;;;;;;;;;;;;;;;8.89;81.75;100243.06;5030321;28;1566;-76
2022/11/01 11:24:59;;;;;;;;;;;;;;;8.90;81.50;100242.84;5030734;28;1663;-77
2022/11/01 11:27:26;;;;;;;;;;;;;;;8.90;81.41;100234.78;5032241;28;1800;-76
2022/11/01 11:29:52;;;;;;;;;;;;;;;8.89;81.70;100232.31;5031080;28;1977;-76
2022/11/01 11:32:19;;;;;;;;;;;;;;;8.90;81.65;100231.28;5021863;28;1694;-77
2022/11/01 11:34:45;;;;;;;;;;;;;;;8.91;81.48;100224.84;5018194;28;1838;-76
2022/11/01 11:37:12;;;;;;;;;;;;;;;8.90;81.59;100217.84;5015598;28;1747;-76
2022/11/01 11:39:38;;;;;;;;;;;;;;;8.90;81.78;100212.47;5019740;28;1881;-76
2022/11/01 11:42:05;;;;;;;;;;;;;;;8.90;81.84;100218.66;5018861;28;1887;-76
2022/11/01 11:44:31;;;;;;;;;;;;;;;8.90;81.60;100207.94;5019026;28;1746;-77
2022/11/01 11:46:58;;;;;;;;;;;;;;;8.91;81.63;100204.19;5019412;28;3656;-76
2022/11/01 11:49:24;;;;;;;;;;;;;;;8.92;81.76;100196.97;5013287;28;5136;-76
2022/11/01 11:51:51;;;;;;;;;;;;;;;8.93;81.55;100201.31;5016965;28;3100;-76
2022/11/01 11:54:17;;;;;;;;;;;;;;;8.91;81.91;100196.13;5017242;28;3053;-77
2022/11/01 11:56:44;;;;;;;;;;;;;;;8.93;81.57;100204.00;5021946;28;2338;-76
2022/11/01 11:59:13;;;;;;;;;;;;;;;8.92;81.44;100195.13;5016581;28;1823;-76
2022/11/01 12:01:39;;;;;;;;;;;;;;;8.91;81.72;100182.72;5018303;28;1913;-76
2022/11/01 12:04:08;;;;;;;;;;;;;;;8.92;81.80;100176.31;5017557;28;1710;-76
2022/11/01 12:06:34;;;;;;;;;;;;;;;8.93;81.77;100161.00;5033709;28;1709;-77
2022/11/01 12:09:01;;;;;;;;;;;;;;;8.93;81.85;100147.59;5018239;28;2257;-76
2022/11/01 12:11:27;;;;;;;;;;;;;;;8.93;81.85;100155.63;5020801;28;1725;-77
2022/11/01 12:13:54;;;;;;;;;;;;;;;8.93;81.52;100155.63;5038535;28;1738;-77
2022/11/01 12:16:23;;;;;;;;;;;;;;;8.94;81.58;100155.44;5028789;28;1567;-76
2022/11/01 12:18:49;;;;;;;;;;;;;;;8.95;81.82;100151.69;5020993;28;1916;-76
2022/11/01 12:21:16;;;;;;;;;;;;;;;8.94;81.95;100135.78;5026953;28;1451;-77
2022/11/01 12:23:42;;;;;;;;;;;;;;;8.94;81.55;100138.47;5027718;28;1882;-76
2022/11/01 12:26:09;;;;;;;;;;;;;;;8.94;81.80;100139.31;5027400;28;1664;-76
2022/11/01 12:28:36;;;;;;;;;;;;;;;8.95;81.63;100140.13;5023970;28;1634;-76
2022/11/01 12:31:02;;;;;;;;;;;;;;;8.94;81.72;100144.69;5025640;28;1976;-76
2022/11/01 12:33:28;;;;;;;;;;;;;;;8.96;81.65;100150.66;5029004;28;1827;-76
2022/11/01 12:35:55;;;;;;;;;;;;;;;8.96;81.56;100145.28;5029879;28;1963;-77
2022/11/01 12:38:21;;;;;;;;;;;;;;;8.96;81.75;100121.09;5026045;28;1976;-76
2022/11/01 12:40:48;;;;;;;;;;;;;;;8.96;81.86;100105.00;5025127;28;1581;-76
2022/11/01 12:43:14;;;;;;;;;;;;;;;8.94;81.96;100096.34;5019209;28;1777;-76
2022/11/01 12:45:40;;;;;;;;;;;;;;;8.96;81.72;100085.38;5017273;28;1602;-77
2022/11/01 12:48:07;;;;;;;;;;;;;;;8.96;81.85;100077.31;5021494;28;1947;-76
2022/11/01 12:50:33;;;;;;;;;;;;;;;8.95;81.70;100108.72;5019788;28;2049;-76
2022/11/01 12:53:00;;;;;;;;;;;;;;;8.97;81.64;100089.69;5012140;28;1832;-76
2022/11/01 12:55:26;;;;;;;;;;;;;;;8.97;81.78;100078.94;5019087;28;1647;-77
2022/11/01 12:57:52;;;;;;;;;;;;;;;8.97;81.56;100085.16;5024495;28;1583;-76
2022/11/01 13:00:19;;;;;;;;;;;;;;;8.98;81.77;100081.44;5027735;28;1575;-76